sensor_id;sensor_type;location;lat;lon;timestamp;pressure;altitude;pressure_sealevel;temperature;humidity
46291;BME280;32023;44.444;26.006;2023-05-03T00:11:43;101100.06;;;12.35;51.47
46291;BME280;32023;44.444;26.006;2023-05-03T00:14:09;101101.31;;;12.27;52.47
46291;BME280;32023;44.444;26.006;2023-05-03T00:16:58;101096.69;;;12.16;52.93
46291;BME280;32023;44.444;26.006;2023-05-03T00:22:15;101095.31;;;11.97;53.61
46291;BME280;32023;44.444;26.006;2023-05-03T00:24:46;101101.16;;;11.84;54.32
46291;BME280;32023;44.444;26.006;2023-05-03T00:34:00;101115.66;;;11.34;56.86
46291;BME280;32023;44.444;26.006;2023-05-03T00:39:36;101113.75;;;11.06;58.76
46291;BME280;32023;44.444;26.006;2023-05-03T00:42:20;101127.06;;;10.98;59.09
46291;BME280;32023;44.444;26.006;2023-05-03T00:45:19;101115.09;;;10.92;60.02
46291;BME280;32023;44.444;26.006;2023-05-03T00:48:24;101113.81;;;10.83;60.37
46291;BME280;32023;44.444;26.006;2023-05-03T00:51:09;101119.44;;;10.77;60.96
46291;BME280;32023;44.444;26.006;2023-05-03T00:53:57;101117.44;;;10.72;61.67
46291;BME280;32023;44.444;26.006;2023-05-03T00:56:50;101120.91;;;10.68;61.83
46291;BME280;32023;44.444;26.006;2023-05-03T00:59:17;101120.78;;;10.62;62.05
46291;BME280;32023;44.444;26.006;2023-05-03T01:01:51;101116.34;;;10.61;62.55
46291;BME280;32023;44.444;26.006;2023-05-03T01:18:39;101112.19;;;10.47;63.12
46291;BME280;32023;44.444;26.006;2023-05-03T01:25:14;101116.97;;;10.40;63.59
46291;BME280;32023;44.444;26.006;2023-05-03T01:28:11;101113.50;;;10.33;64.00
46291;BME280;32023;44.444;26.006;2023-05-03T01:31:02;101120.09;;;10.32;64.20
46291;BME280;32023;44.444;26.006;2023-05-03T01:37:00;101114.94;;;10.24;64.46
46291;BME280;32023;44.444;26.006;2023-05-03T01:42:49;101113.81;;;10.13;65.32
46291;BME280;32023;44.444;26.006;2023-05-03T01:51:15;101110.59;;;10.05;65.81
46291;BME280;32023;44.444;26.006;2023-05-03T01:54:27;101105.56;;;10.02;65.90
46291;BME280;32023;44.444;26.006;2023-05-03T01:57:23;101101.03;;;9.96;66.15
46291;BME280;32023;44.444;26.006;2023-05-03T02:03:04;101105.53;;;9.90;66.47
46291;BME280;32023;44.444;26.006;2023-05-03T02:05:39;101100.75;;;9.86;66.26
46291;BME280;32023;44.444;26.006;2023-05-03T02:08:27;101101.22;;;9.83;66.86
46291;BME280;32023;44.444;26.006;2023-05-03T02:11:23;101098.97;;;9.80;66.68
46291;BME280;32023;44.444;26.006;2023-05-03T02:17:47;101099.28;;;9.72;67.60
46291;BME280;32023;44.444;26.006;2023-05-03T02:20:28;101103.13;;;9.71;67.33
46291;BME280;32023;44.444;26.006;2023-05-03T02:23:15;101094.50;;;9.67;67.31
46291;BME280;32023;44.444;26.006;2023-05-03T02:25:58;101097.03;;;9.68;67.29
46291;BME280;32023;44.444;26.006;2023-05-03T02:28:32;101094.38;;;9.62;67.58
46291;BME280;32023;44.444;26.006;2023-05-03T02:31:01;101098.44;;;9.59;67.63
46291;BME280;32023;44.444;26.006;2023-05-03T02:33:57;101099.53;;;9.58;67.73
46291;BME280;32023;44.444;26.006;2023-05-03T02:36:48;101096.78;;;9.58;67.62
46291;BME280;32023;44.444;26.006;2023-05-03T02:43:01;101106.09;;;9.57;67.79
46291;BME280;32023;44.444;26.006;2023-05-03T02:45:30;101102.75;;;9.55;67.46
46291;BME280;32023;44.444;26.006;2023-05-03T02:48:12;101108.69;;;9.52;68.10
46291;BME280;32023;44.444;26.006;2023-05-03T02:51:22;101109.78;;;9.51;68.17
46291;BME280;32023;44.444;26.006;2023-05-03T02:54:06;101107.03;;;9.51;68.27
46291;BME280;32023;44.444;26.006;2023-05-03T03:00:02;101105.34;;;9.50;68.20
46291;BME280;32023;44.444;26.006;2023-05-03T03:02:44;101112.75;;;9.50;68.42
46291;BME280;32023;44.444;26.006;2023-05-03T03:05:35;101106.41;;;9.49;68.49
46291;BME280;32023;44.444;26.006;2023-05-03T03:08:14;101112.97;;;9.48;68.48
46291;BME280;32023;44.444;26.006;2023-05-03T03:14:13;101109.66;;;9.46;68.50
46291;BME280;32023;44.444;26.006;2023-05-03T03:17:07;101112.97;;;9.48;68.70
46291;BME280;32023;44.444;26.006;2023-05-03T03:23:35;101117.41;;;9.49;68.39
46291;BME280;32023;44.444;26.006;2023-05-03T03:36:15;101110.84;;;9.50;69.05
46291;BME280;32023;44.444;26.006;2023-05-03T03:39:35;101112.41;;;9.46;69.54
46291;BME280;32023;44.444;26.006;2023-05-03T03:42:34;101114.19;;;9.52;69.80
46291;BME280;32023;44.444;26.006;2023-05-03T03:47:46;101120.44;;;9.59;69.13
46291;BME280;32023;44.444;26.006;2023-05-03T03:54:16;101108.63;;;9.71;69.45
46291;BME280;32023;44.444;26.006;2023-05-03T04:00:53;101128.03;;;9.87;69.53
46291;BME280;32023;44.444;26.006;2023-05-03T04:03:43;101123.50;;;9.93;69.23
46291;BME280;32023;44.444;26.006;2023-05-03T04:06:25;101120.50;;;9.94;69.20
46291;BME280;32023;44.444;26.006;2023-05-03T04:14:32;101106.28;;;10.09;69.04
46291;BME280;32023;44.444;26.006;2023-05-03T04:16:58;101121.13;;;10.08;68.85
46291;BME280;32023;44.444;26.006;2023-05-03T04:19:26;101122.34;;;10.12;69.21
46291;BME280;32023;44.444;26.006;2023-05-03T04:21:57;101130.25;;;10.20;68.65
46291;BME280;32023;44.444;26.006;2023-05-03T04:24:54;101135.31;;;10.23;68.58
46291;BME280;32023;44.444;26.006;2023-05-03T04:27:28;101141.53;;;10.30;68.77
46291;BME280;32023;44.444;26.006;2023-05-03T04:30:26;101158.03;;;10.30;68.35
46291;BME280;32023;44.444;26.006;2023-05-03T04:33:05;101154.09;;;10.38;68.68
46291;BME280;32023;44.444;26.006;2023-05-03T04:35:50;101150.38;;;10.44;68.75
46291;BME280;32023;44.444;26.006;2023-05-03T04:38:23;101150.84;;;10.52;68.72
46291;BME280;32023;44.444;26.006;2023-05-03T04:41:04;101158.41;;;10.57;68.70
46291;BME280;32023;44.444;26.006;2023-05-03T04:43:45;101150.50;;;10.60;68.90
46291;BME280;32023;44.444;26.006;2023-05-03T04:46:11;101159.94;;;10.65;68.28
46291;BME280;32023;44.444;26.006;2023-05-03T04:48:53;101154.53;;;10.70;68.08
46291;BME280;32023;44.444;26.006;2023-05-03T04:51:22;101166.66;;;10.69;68.24
46291;BME280;32023;44.444;26.006;2023-05-03T04:53:49;101162.56;;;10.71;67.72
46291;BME280;32023;44.444;26.006;2023-05-03T04:56:16;101164.13;;;10.79;68.44
46291;BME280;32023;44.444;26.006;2023-05-03T04:58:47;101169.97;;;10.94;68.14
46291;BME280;32023;44.444;26.006;2023-05-03T05:07:52;101174.69;;;11.22;66.85
46291;BME280;32023;44.444;26.006;2023-05-03T05:10:47;101178.28;;;11.22;66.70
46291;BME280;32023;44.444;26.006;2023-05-03T05:13:14;101184.75;;;11.28;66.12
46291;BME280;32023;44.444;26.006;2023-05-03T05:15:59;101183.88;;;11.39;66.26
46291;BME280;32023;44.444;26.006;2023-05-03T05:18:28;101187.28;;;11.57;65.43
46291;BME280;32023;44.444;26.006;2023-05-03T05:21:04;101186.84;;;11.77;65.45
46291;BME280;32023;44.444;26.006;2023-05-03T05:23:41;101185.78;;;11.95;64.14
46291;BME280;32023;44.444;26.006;2023-05-03T05:26:07;101181.72;;;12.14;64.49
46291;BME280;32023;44.444;26.006;2023-05-03T05:28:34;101180.91;;;12.30;63.34
46291;BME280;32023;44.444;26.006;2023-05-03T05:31:19;101181.06;;;12.40;63.03
46291;BME280;32023;44.444;26.006;2023-05-03T05:33:46;101175.09;;;12.48;63.06
46291;BME280;32023;44.444;26.006;2023-05-03T05:36:14;101181.44;;;12.66;62.50
46291;BME280;32023;44.444;26.006;2023-05-03T05:38:41;101176.66;;;12.78;61.31
46291;BME280;32023;44.444;26.006;2023-05-03T05:41:20;101176.03;;;12.92;61.31
46291;BME280;32023;44.444;26.006;2023-05-03T05:43:46;101171.53;;;13.08;60.94
46291;BME280;32023;44.444;26.006;2023-05-03T05:46:21;101170.59;;;13.19;60.29
46291;BME280;32023;44.444;26.006;2023-05-03T05:48:47;101167.06;;;13.24;59.76
46291;BME280;32023;44.444;26.006;2023-05-03T05:51:18;101160.25;;;13.31;59.52
46291;BME280;32023;44.444;26.006;2023-05-03T05:53:45;101154.72;;;13.31;59.12
46291;BME280;32023;44.444;26.006;2023-05-03T05:56:14;101153.75;;;13.21;59.01
46291;BME280;32023;44.444;26.006;2023-05-03T05:58:42;101158.53;;;13.25;58.92
46291;BME280;32023;44.444;26.006;2023-05-03T06:04:16;101156.59;;;13.52;58.46
46291;BME280;32023;44.444;26.006;2023-05-03T06:06:45;101163.44;;;13.67;57.96
46291;BME280;32023;44.444;26.006;2023-05-03T06:09:12;101153.00;;;13.79;56.83
46291;BME280;32023;44.444;26.006;2023-05-03T06:11:42;101152.91;;;13.95;56.90
46291;BME280;32023;44.444;26.006;2023-05-03T06:14:15;101151.13;;;14.16;56.44
46291;BME280;32023;44.444;26.006;2023-05-03T06:16:46;101155.69;;;14.27;54.48
46291;BME280;32023;44.444;26.006;2023-05-03T06:19:13;101159.69;;;14.41;54.59
46291;BME280;32023;44.444;26.006;2023-05-03T06:21:57;101165.31;;;14.52;54.17
46291;BME280;32023;44.444;26.006;2023-05-03T06:24:57;101174.31;;;14.74;53.65
46291;BME280;32023;44.444;26.006;2023-05-03T06:28:10;101170.03;;;14.98;52.93
46291;BME280;32023;44.444;26.006;2023-05-03T06:30:57;101166.47;;;15.03;52.03
46291;BME280;32023;44.444;26.006;2023-05-03T06:37:36;101176.88;;;15.32;50.62
46291;BME280;32023;44.444;26.006;2023-05-03T06:40:03;101171.13;;;15.49;49.99
46291;BME280;32023;44.444;26.006;2023-05-03T07:31:47;101198.97;;;17.85;44.35
46291;BME280;32023;44.444;26.006;2023-05-03T07:41:33;101191.44;;;18.24;41.76
46291;BME280;32023;44.444;26.006;2023-05-03T07:52:12;101203.00;;;18.47;40.17
46291;BME280;32023;44.444;26.006;2023-05-03T08:12:29;101225.47;;;18.21;42.05
46291;BME280;32023;44.444;26.006;2023-05-03T09:24:47;101169.91;;;19.16;40.28
46291;BME280;32023;44.444;26.006;2023-05-03T09:32:00;101146.63;;;19.02;40.65
46291;BME280;32023;44.444;26.006;2023-05-03T09:35:07;101142.47;;;19.23;41.00
46291;BME280;32023;44.444;26.006;2023-05-03T09:38:59;101149.84;;;19.14;40.65
46291;BME280;32023;44.444;26.006;2023-05-03T09:45:47;101137.63;;;19.10;41.76
46291;BME280;32023;44.444;26.006;2023-05-03T10:05:53;101125.16;;;20.52;39.26
46291;BME280;32023;44.444;26.006;2023-05-03T10:12:34;101137.38;;;21.02;38.81
46291;BME280;32023;44.444;26.006;2023-05-03T10:15:16;101135.69;;;21.56;37.92
46291;BME280;32023;44.444;26.006;2023-05-03T10:17:52;101133.31;;;21.99;37.19
46291;BME280;32023;44.444;26.006;2023-05-03T10:20:56;101132.09;;;22.36;36.78
46291;BME280;32023;44.444;26.006;2023-05-03T10:27:16;101119.47;;;23.57;34.31
46291;BME280;32023;44.444;26.006;2023-05-03T10:29:58;101119.13;;;23.10;35.02
46291;BME280;32023;44.444;26.006;2023-05-03T10:32:52;101117.47;;;22.17;36.39
46291;BME280;32023;44.444;26.006;2023-05-03T10:35:42;101107.38;;;21.93;37.02
46291;BME280;32023;44.444;26.006;2023-05-03T10:38:41;101115.38;;;21.86;37.63
46291;BME280;32023;44.444;26.006;2023-05-03T10:41:31;101115.44;;;21.45;38.08
46291;BME280;32023;44.444;26.006;2023-05-03T10:44:03;101098.88;;;21.35;38.62
46291;BME280;32023;44.444;26.006;2023-05-03T10:47:41;101123.00;;;21.58;38.60
46291;BME280;32023;44.444;26.006;2023-05-03T10:53:07;101113.03;;;21.66;37.73
46291;BME280;32023;44.444;26.006;2023-05-03T10:56:23;101116.47;;;21.49;38.05
46291;BME280;32023;44.444;26.006;2023-05-03T10:59:15;101119.41;;;21.31;39.00
46291;BME280;32023;44.444;26.006;2023-05-03T11:02:35;101115.47;;;21.04;39.41
46291;BME280;32023;44.444;26.006;2023-05-03T11:05:38;101105.72;;;20.88;39.23
46291;BME280;32023;44.444;26.006;2023-05-03T11:08:48;101105.06;;;20.50;39.66
46291;BME280;32023;44.444;26.006;2023-05-03T11:11:51;101110.47;;;20.28;40.90
46291;BME280;32023;44.444;26.006;2023-05-03T11:14:37;101089.69;;;20.48;41.29
46291;BME280;32023;44.444;26.006;2023-05-03T11:17:05;101101.66;;;20.67;41.06
46291;BME280;32023;44.444;26.006;2023-05-03T11:19:36;101079.38;;;20.62;41.06
46291;BME280;32023;44.444;26.006;2023-05-03T11:22:04;101085.41;;;20.69;40.07
46291;BME280;32023;44.444;26.006;2023-05-03T11:24:31;101093.47;;;20.57;40.31
46291;BME280;32023;44.444;26.006;2023-05-03T11:26:57;101077.88;;;20.51;40.48
46291;BME280;32023;44.444;26.006;2023-05-03T11:29:31;101083.28;;;20.47;39.69
46291;BME280;32023;44.444;26.006;2023-05-03T11:31:57;101085.13;;;20.38;40.22
46291;BME280;32023;44.444;26.006;2023-05-03T11:34:30;101084.31;;;20.38;39.44
46291;BME280;32023;44.444;26.006;2023-05-03T11:36:57;101082.41;;;20.33;39.80
46291;BME280;32023;44.444;26.006;2023-05-03T11:39:27;101073.81;;;20.30;39.96
46291;BME280;32023;44.444;26.006;2023-05-03T11:42:04;101061.81;;;20.10;40.00
46291;BME280;32023;44.444;26.006;2023-05-03T11:44:31;101047.84;;;20.10;40.55
46291;BME280;32023;44.444;26.006;2023-05-03T11:47:13;101052.72;;;20.18;40.08
46291;BME280;32023;44.444;26.006;2023-05-03T11:50:00;101043.03;;;20.30;40.08
46291;BME280;32023;44.444;26.006;2023-05-03T11:52:29;101045.25;;;20.46;39.69
46291;BME280;32023;44.444;26.006;2023-05-03T11:57:48;101056.00;;;21.07;38.40
46291;BME280;32023;44.444;26.006;2023-05-03T12:00:18;101056.53;;;21.23;38.26
46291;BME280;32023;44.444;26.006;2023-05-03T12:02:53;101054.28;;;21.11;38.13
46291;BME280;32023;44.444;26.006;2023-05-03T12:05:22;101045.13;;;20.92;38.47
46291;BME280;32023;44.444;26.006;2023-05-03T12:07:58;101041.66;;;20.73;38.77
46291;BME280;32023;44.444;26.006;2023-05-03T12:10:31;101043.72;;;20.54;39.25
46291;BME280;32023;44.444;26.006;2023-05-03T12:12:58;101045.56;;;20.45;39.10
46291;BME280;32023;44.444;26.006;2023-05-03T12:15:35;101034.13;;;20.28;39.06
46291;BME280;32023;44.444;26.006;2023-05-03T12:21:04;101041.41;;;19.78;40.24
46291;BME280;32023;44.444;26.006;2023-05-03T12:23:36;101028.78;;;19.80;40.57
46291;BME280;32023;44.444;26.006;2023-05-03T12:26:05;101036.66;;;19.78;40.43
46291;BME280;32023;44.444;26.006;2023-05-03T12:28:47;101020.50;;;19.75;40.30
46291;BME280;32023;44.444;26.006;2023-05-03T12:31:18;101024.75;;;20.05;40.01
46291;BME280;32023;44.444;26.006;2023-05-03T12:33:48;101021.34;;;20.22;39.64
46291;BME280;32023;44.444;26.006;2023-05-03T12:36:27;101003.94;;;20.25;39.85
46291;BME280;32023;44.444;26.006;2023-05-03T12:38:56;100992.59;;;20.35;39.58
46291;BME280;32023;44.444;26.006;2023-05-03T12:41:27;100985.13;;;20.44;39.43
46291;BME280;32023;44.444;26.006;2023-05-03T12:43:58;100984.44;;;20.65;39.47
46291;BME280;32023;44.444;26.006;2023-05-03T12:46:27;100974.78;;;21.07;38.79
46291;BME280;32023;44.444;26.006;2023-05-03T12:48:53;100978.56;;;21.39;37.62
46291;BME280;32023;44.444;26.006;2023-05-03T12:51:22;100977.56;;;21.57;36.27
46291;BME280;32023;44.444;26.006;2023-05-03T12:53:52;100968.97;;;21.76;35.02
46291;BME280;32023;44.444;26.006;2023-05-03T12:56:18;100957.69;;;21.89;34.65
46291;BME280;32023;44.444;26.006;2023-05-03T12:58:50;100973.06;;;21.70;34.90
46291;BME280;32023;44.444;26.006;2023-05-03T13:07:34;100955.19;;;21.21;33.88
46291;BME280;32023;44.444;26.006;2023-05-03T13:10:18;100955.72;;;21.09;33.87
46291;BME280;32023;44.444;26.006;2023-05-03T13:12:48;100953.28;;;20.94;33.69
46291;BME280;32023;44.444;26.006;2023-05-03T13:15:14;100938.97;;;20.82;33.26
46291;BME280;32023;44.444;26.006;2023-05-03T13:17:43;100946.69;;;20.77;32.80
46291;BME280;32023;44.444;26.006;2023-05-03T13:20:18;100935.28;;;20.73;33.00
46291;BME280;32023;44.444;26.006;2023-05-03T13:22:56;100945.97;;;20.57;33.24
46291;BME280;32023;44.444;26.006;2023-05-03T13:25:35;100941.09;;;20.49;33.24
46291;BME280;32023;44.444;26.006;2023-05-03T13:28:08;100943.16;;;20.44;32.42
46291;BME280;32023;44.444;26.006;2023-05-03T13:30:34;100940.91;;;20.46;32.54
46291;BME280;32023;44.444;26.006;2023-05-03T13:33:01;100944.00;;;20.44;32.29
46291;BME280;32023;44.444;26.006;2023-05-03T13:35:30;100938.41;;;20.31;31.51
46291;BME280;32023;44.444;26.006;2023-05-03T13:37:56;100940.88;;;20.32;31.09
46291;BME280;32023;44.444;26.006;2023-05-03T13:40:23;100938.19;;;20.27;30.80
46291;BME280;32023;44.444;26.006;2023-05-03T13:42:49;100930.53;;;20.33;30.71
46291;BME280;32023;44.444;26.006;2023-05-03T13:45:16;100926.81;;;20.37;30.85
46291;BME280;32023;44.444;26.006;2023-05-03T13:47:43;100918.63;;;20.41;30.50
46291;BME280;32023;44.444;26.006;2023-05-03T13:50:09;100933.34;;;20.46;30.66
46291;BME280;32023;44.444;26.006;2023-05-03T13:52:36;100927.63;;;20.51;30.46
46291;BME280;32023;44.444;26.006;2023-05-03T13:55:03;100913.97;;;20.50;30.72
46291;BME280;32023;44.444;26.006;2023-05-03T13:57:29;100902.97;;;20.53;30.99
46291;BME280;32023;44.444;26.006;2023-05-03T13:59:58;100901.78;;;20.68;31.26
46291;BME280;32023;44.444;26.006;2023-05-03T14:02:36;100904.16;;;20.75;30.90
46291;BME280;32023;44.444;26.006;2023-05-03T14:05:07;100904.06;;;20.66;30.62
46291;BME280;32023;44.444;26.006;2023-05-03T14:07:46;100905.63;;;20.58;30.87
46291;BME280;32023;44.444;26.006;2023-05-03T14:10:15;100912.28;;;20.49;30.45
46291;BME280;32023;44.444;26.006;2023-05-03T14:12:50;100914.34;;;20.43;30.16
46291;BME280;32023;44.444;26.006;2023-05-03T14:15:26;100907.97;;;20.43;30.29
46291;BME280;32023;44.444;26.006;2023-05-03T14:18:07;100910.75;;;20.43;30.41
46291;BME280;32023;44.444;26.006;2023-05-03T14:20:43;100913.13;;;20.49;29.92
46291;BME280;32023;44.444;26.006;2023-05-03T14:23:22;100915.50;;;20.56;29.75
46291;BME280;32023;44.444;26.006;2023-05-03T14:26:13;100916.03;;;20.58;30.03
46291;BME280;32023;44.444;26.006;2023-05-03T14:28:53;100922.03;;;20.65;29.73
46291;BME280;32023;44.444;26.006;2023-05-03T14:31:40;100914.56;;;20.60;29.45
46291;BME280;32023;44.444;26.006;2023-05-03T14:34:20;100920.97;;;20.47;29.56
46291;BME280;32023;44.444;26.006;2023-05-03T14:37:05;100905.25;;;20.38;29.51
46291;BME280;32023;44.444;26.006;2023-05-03T14:39:59;100904.13;;;20.39;29.14
46291;BME280;32023;44.444;26.006;2023-05-03T14:42:36;100902.47;;;20.38;29.56
46291;BME280;32023;44.444;26.006;2023-05-03T14:45:06;100888.47;;;20.38;29.50
46291;BME280;32023;44.444;26.006;2023-05-03T14:47:51;100882.44;;;20.44;28.90
46291;BME280;32023;44.444;26.006;2023-05-03T14:53:20;100886.81;;;20.50;28.37
46291;BME280;32023;44.444;26.006;2023-05-03T14:56:10;100878.47;;;20.59;28.50
46291;BME280;32023;44.444;26.006;2023-05-03T14:58:39;100888.63;;;20.55;28.90
46291;BME280;32023;44.444;26.006;2023-05-03T15:01:26;100894.03;;;20.65;28.08
46291;BME280;32023;44.444;26.006;2023-05-03T15:04:00;100881.41;;;20.54;28.04
46291;BME280;32023;44.444;26.006;2023-05-03T15:06:57;100890.09;;;20.52;28.47
46291;BME280;32023;44.444;26.006;2023-05-03T15:09:39;100891.56;;;20.50;28.70
46291;BME280;32023;44.444;26.006;2023-05-03T15:12:21;100891.97;;;20.57;28.71
46291;BME280;32023;44.444;26.006;2023-05-03T15:15:39;100886.28;;;20.62;28.50
46291;BME280;32023;44.444;26.006;2023-05-03T15:18:33;100889.16;;;20.57;27.24
46291;BME280;32023;44.444;26.006;2023-05-03T15:21:04;100888.44;;;20.51;27.15
46291;BME280;32023;44.444;26.006;2023-05-03T15:23:54;100891.38;;;20.46;27.63
46291;BME280;32023;44.444;26.006;2023-05-03T15:26:50;100912.38;;;20.44;27.28
46291;BME280;32023;44.444;26.006;2023-05-03T15:32:50;100884.53;;;20.39;27.98
46291;BME280;32023;44.444;26.006;2023-05-03T15:35:45;100864.75;;;20.35;28.27
46291;BME280;32023;44.444;26.006;2023-05-03T15:38:46;100863.94;;;20.35;28.13
46291;BME280;32023;44.444;26.006;2023-05-03T15:41:28;100862.56;;;20.32;28.42
46291;BME280;32023;44.444;26.006;2023-05-03T15:44:06;100861.75;;;20.32;28.43
46291;BME280;32023;44.444;26.006;2023-05-03T15:46:50;100868.97;;;20.33;28.51
46291;BME280;32023;44.444;26.006;2023-05-03T15:49:29;100866.28;;;20.28;28.74
46291;BME280;32023;44.444;26.006;2023-05-03T15:52:05;100862.75;;;20.22;28.89
46291;BME280;32023;44.444;26.006;2023-05-03T15:54:39;100853.34;;;20.18;28.76
46291;BME280;32023;44.444;26.006;2023-05-03T15:57:33;100859.25;;;20.03;28.63
46291;BME280;32023;44.444;26.006;2023-05-03T16:00:16;100834.09;;;19.89;28.35
46291;BME280;32023;44.444;26.006;2023-05-03T16:03:05;100833.13;;;19.80;28.76
46291;BME280;32023;44.444;26.006;2023-05-03T16:06:10;100830.75;;;19.74;28.83
46291;BME280;32023;44.444;26.006;2023-05-03T16:09:06;100841.19;;;19.68;29.06
46291;BME280;32023;44.444;26.006;2023-05-03T16:12:05;100836.78;;;19.67;29.03
46291;BME280;32023;44.444;26.006;2023-05-03T16:14:48;100832.59;;;19.64;29.23
46291;BME280;32023;44.444;26.006;2023-05-03T16:17:36;100846.56;;;19.51;29.51
46291;BME280;32023;44.444;26.006;2023-05-03T16:20:23;100845.47;;;19.33;29.55
46291;BME280;32023;44.444;26.006;2023-05-03T16:26:35;100838.63;;;19.26;30.11
46291;BME280;32023;44.444;26.006;2023-05-03T16:29:47;100839.81;;;19.19;30.20
46291;BME280;32023;44.444;26.006;2023-05-03T16:39:40;100835.81;;;18.93;30.74
46291;BME280;32023;44.444;26.006;2023-05-03T16:56:20;100824.91;;;18.36;31.85
46291;BME280;32023;44.444;26.006;2023-05-03T17:18:59;100861.88;;;17.80;33.19
46291;BME280;32023;44.444;26.006;2023-05-03T17:21:47;100858.59;;;17.73;33.59
46291;BME280;32023;44.444;26.006;2023-05-03T17:24:51;100863.16;;;17.64;33.93
46291;BME280;32023;44.444;26.006;2023-05-03T17:27:39;100853.19;;;17.58;34.15
46291;BME280;32023;44.444;26.006;2023-05-03T17:30:30;100853.81;;;17.50;34.33
46291;BME280;32023;44.444;26.006;2023-05-03T17:36:23;100848.38;;;17.34;34.96
46291;BME280;32023;44.444;26.006;2023-05-03T17:39:07;100867.34;;;17.32;35.44
46291;BME280;32023;44.444;26.006;2023-05-03T17:41:57;100871.84;;;17.28;35.87
46291;BME280;32023;44.444;26.006;2023-05-03T17:44:29;100889.69;;;17.22;36.42
46291;BME280;32023;44.444;26.006;2023-05-03T17:47:10;100890.28;;;17.19;36.57
46291;BME280;32023;44.444;26.006;2023-05-03T17:49:46;100891.13;;;17.15;36.92
46291;BME280;32023;44.444;26.006;2023-05-03T17:52:24;100896.50;;;17.06;36.83
46291;BME280;32023;44.444;26.006;2023-05-03T17:58:15;100920.50;;;16.92;37.20
46291;BME280;32023;44.444;26.006;2023-05-03T18:15:21;100954.31;;;16.70;40.46
46291;BME280;32023;44.444;26.006;2023-05-03T18:18:14;100967.16;;;16.61;41.71
46291;BME280;32023;44.444;26.006;2023-05-03T18:21:24;100987.75;;;16.50;42.95
46291;BME280;32023;44.444;26.006;2023-05-03T18:44:06;101043.16;;;15.91;45.79
46291;BME280;32023;44.444;26.006;2023-05-03T18:47:36;101040.94;;;15.88;46.19
46291;BME280;32023;44.444;26.006;2023-05-03T19:11:36;101024.09;;;14.82;49.60
46291;BME280;32023;44.444;26.006;2023-05-03T19:15:19;101067.97;;;15.00;49.32
46291;BME280;32023;44.444;26.006;2023-05-03T19:32:57;101100.09;;;14.86;51.05
46291;BME280;32023;44.444;26.006;2023-05-03T19:36:34;101108.38;;;14.81;51.71
46291;BME280;32023;44.444;26.006;2023-05-03T19:47:34;101094.97;;;14.63;53.55
46291;BME280;32023;44.444;26.006;2023-05-03T19:58:05;101117.03;;;14.42;54.94
46291;BME280;32023;44.444;26.006;2023-05-03T20:31:23;101106.38;;;13.97;56.65
46291;BME280;32023;44.444;26.006;2023-05-03T20:38:08;101081.81;;;14.01;56.55
46291;BME280;32023;44.444;26.006;2023-05-03T20:44:11;101077.59;;;13.98;56.70
46291;BME280;32023;44.444;26.006;2023-05-03T20:53:20;101064.56;;;13.94;57.27
46291;BME280;32023;44.444;26.006;2023-05-03T21:02:45;101057.72;;;14.07;57.65
46291;BME280;32023;44.444;26.006;2023-05-03T21:05:42;101070.78;;;14.11;57.61
46291;BME280;32023;44.444;26.006;2023-05-03T21:08:48;101062.97;;;14.03;57.75
46291;BME280;32023;44.444;26.006;2023-05-03T21:11:20;101058.50;;;13.97;58.61
46291;BME280;32023;44.444;26.006;2023-05-03T21:13:48;101057.84;;;13.85;59.11
46291;BME280;32023;44.444;26.006;2023-05-03T21:16:15;101084.38;;;13.81;59.66
46291;BME280;32023;44.444;26.006;2023-05-03T21:18:41;101066.88;;;13.70;60.30
46291;BME280;32023;44.444;26.006;2023-05-03T21:21:09;101060.19;;;13.66;60.78
46291;BME280;32023;44.444;26.006;2023-05-03T21:23:37;101015.94;;;13.39;60.80
46291;BME280;32023;44.444;26.006;2023-05-03T21:26:07;101038.56;;;13.63;61.08
46291;BME280;32023;44.444;26.006;2023-05-03T21:28:37;101058.72;;;13.59;61.52
46291;BME280;32023;44.444;26.006;2023-05-03T21:31:03;101077.47;;;13.52;62.05
46291;BME280;32023;44.444;26.006;2023-05-03T21:33:33;101084.03;;;13.45;62.25
46291;BME280;32023;44.444;26.006;2023-05-03T21:36:00;101082.66;;;13.43;62.85
46291;BME280;32023;44.444;26.006;2023-05-03T21:38:27;101078.13;;;13.37;63.48
46291;BME280;32023;44.444;26.006;2023-05-03T21:41:03;101083.09;;;13.35;63.20
46291;BME280;32023;44.444;26.006;2023-05-03T21:43:31;101088.31;;;13.31;63.82
46291;BME280;32023;44.444;26.006;2023-05-03T21:45:58;101086.03;;;13.23;64.19
46291;BME280;32023;44.444;26.006;2023-05-03T21:48:27;101080.50;;;13.23;64.19
46291;BME280;32023;44.444;26.006;2023-05-03T21:50:56;101071.03;;;13.19;64.46
46291;BME280;32023;44.444;26.006;2023-05-03T21:53:23;101069.03;;;13.15;64.76
46291;BME280;32023;44.444;26.006;2023-05-03T21:55:51;101058.25;;;13.13;64.94
46291;BME280;32023;44.444;26.006;2023-05-03T21:58:17;101048.88;;;13.14;65.13
46291;BME280;32023;44.444;26.006;2023-05-03T22:00:44;101046.69;;;13.16;65.20
46291;BME280;32023;44.444;26.006;2023-05-03T22:03:10;101038.13;;;13.18;65.16
46291;BME280;32023;44.444;26.006;2023-05-03T22:05:41;101043.34;;;13.14;65.23
46291;BME280;32023;44.444;26.006;2023-05-03T22:08:12;101041.66;;;13.13;65.12
46291;BME280;32023;44.444;26.006;2023-05-03T22:10:39;101045.59;;;13.17;64.93
46291;BME280;32023;44.444;26.006;2023-05-03T22:13:11;101041.69;;;13.18;64.72
46291;BME280;32023;44.444;26.006;2023-05-03T22:15:37;101032.31;;;13.19;65.05